createdAt,value
2022-08-28T00:00:38.096Z,18.95
2022-08-28T00:03:06.944Z,18.96
2022-08-28T00:05:36.396Z,18.71
2022-08-28T00:08:04.839Z,18.73
2022-08-28T00:10:34.073Z,18.82
2022-08-28T00:13:02.410Z,18.64
2022-08-28T00:15:33.793Z,18.56
2022-08-28T00:18:03.593Z,18.52
2022-08-28T00:20:32.674Z,18.68
2022-08-28T00:23:02.786Z,18.57
2022-08-28T00:25:31.912Z,18.54
2022-08-28T00:28:10.475Z,18.57
2022-08-28T00:30:41.063Z,18.44
2022-08-28T00:33:11.994Z,18.51
2022-08-28T00:35:41.704Z,18.54
2022-08-28T00:38:12.728Z,18.39
2022-08-28T00:40:44.202Z,18.30
2022-08-28T00:43:23.294Z,18.36
2022-08-28T00:45:51.401Z,18.29
2022-08-28T00:48:19.701Z,18.15
2022-08-28T00:51:05.378Z,18.27
2022-08-28T00:53:34.762Z,18.26
2022-08-28T00:56:07.065Z,18.18
2022-08-28T00:58:44.574Z,18.13
2022-08-28T01:01:14.157Z,18.11
2022-08-28T01:03:43.125Z,18.05
2022-08-28T01:06:12.845Z,18.02
2022-08-28T01:08:45.329Z,17.96
2022-08-28T01:11:19.962Z,17.94
2022-08-28T01:13:49.496Z,17.91
2022-08-28T01:16:19.022Z,18.10
2022-08-28T01:18:47.786Z,17.95
2022-08-28T01:21:23.833Z,17.98
2022-08-28T01:23:58.057Z,17.80
2022-08-28T01:26:27.710Z,17.83
2022-08-28T01:28:55.895Z,17.84
2022-08-28T01:31:25.034Z,17.78
2022-08-28T01:33:53.372Z,17.64
2022-08-28T01:36:22.481Z,17.62
2022-08-28T01:38:58.976Z,17.75
2022-08-28T01:41:26.861Z,17.66
2022-08-28T01:43:54.779Z,17.61
2022-08-28T01:46:22.901Z,17.60
2022-08-28T01:48:50.885Z,17.51
2022-08-28T01:51:24.401Z,17.72
2022-08-28T01:53:52.951Z,17.66
2022-08-28T01:56:22.289Z,17.76
2022-08-28T01:58:50.773Z,17.63
2022-08-28T02:01:21.451Z,17.68
2022-08-28T02:03:52.916Z,17.50
2022-08-28T02:06:21.518Z,17.55
2022-08-28T02:08:55.185Z,17.69
2022-08-28T02:11:25.975Z,17.48
2022-08-28T02:13:56.378Z,17.39
2022-08-28T02:16:24.710Z,17.37
2022-08-28T02:18:53.078Z,17.47
2022-08-28T02:21:21.564Z,17.52
2022-08-28T02:23:49.553Z,17.50
2022-08-28T02:26:17.546Z,17.48
2022-08-28T02:28:46.859Z,17.24
2022-08-28T02:31:15.591Z,17.46
2022-08-28T02:33:45.876Z,17.40
2022-08-28T02:36:15.685Z,17.46
2022-08-28T02:38:44.717Z,17.42
2022-08-28T02:41:13.476Z,17.41
2022-08-28T02:43:41.905Z,17.60
2022-08-28T02:46:11.537Z,17.46
2022-08-28T02:48:41.432Z,17.28
2022-08-28T02:51:13.932Z,17.38
2022-08-28T02:53:43.163Z,17.18
2022-08-28T02:56:11.929Z,17.41
2022-08-28T02:58:40.963Z,17.16
2022-08-28T03:01:13.450Z,17.24
2022-08-28T03:03:43.119Z,17.07
2022-08-28T03:06:12.866Z,16.94
2022-08-28T03:08:41.597Z,17.05
2022-08-28T03:11:10.057Z,17.01
2022-08-28T03:13:37.918Z,17.07
2022-08-28T03:16:06.020Z,17.10
2022-08-28T03:18:35.296Z,17.17
2022-08-28T03:21:03.281Z,16.82
2022-08-28T03:23:30.313Z,16.84
2022-08-28T03:26:00.607Z,16.83
2022-08-28T03:28:30.574Z,16.84
2022-08-28T03:30:58.831Z,17.08
2022-08-28T03:33:30.218Z,16.84
2022-08-28T03:35:59.893Z,16.84
2022-08-28T03:38:33.784Z,16.94
2022-08-28T03:41:02.324Z,16.89
2022-08-28T03:43:31.488Z,16.85
2022-08-28T03:46:01.142Z,16.74
2022-08-28T03:48:31.290Z,17.06
2022-08-28T03:51:01.299Z,16.80
2022-08-28T03:53:30.857Z,16.74
2022-08-28T03:55:58.856Z,16.66
2022-08-28T03:58:27.685Z,16.65
2022-08-28T04:00:55.732Z,16.64
2022-08-28T04:03:23.656Z,16.55
2022-08-28T04:05:52.158Z,16.57
2022-08-28T04:08:23.040Z,16.62
2022-08-28T04:10:52.763Z,16.56
2022-08-28T04:13:22.669Z,16.85
2022-08-28T04:15:58.579Z,16.82
2022-08-28T04:18:27.375Z,16.88
2022-08-28T04:21:00.270Z,16.80
2022-08-28T04:23:29.706Z,16.84
2022-08-28T04:25:58.470Z,16.63
2022-08-28T04:28:26.907Z,16.63
2022-08-28T04:30:56.261Z,16.58
2022-08-28T04:33:24.787Z,16.49
2022-08-28T04:35:52.870Z,16.51
2022-08-28T04:38:21.476Z,16.52
2022-08-28T04:40:50.820Z,16.70
2022-08-28T04:43:18.747Z,16.59
2022-08-28T04:45:47.122Z,16.44
2022-08-28T04:48:15.743Z,16.46
2022-08-28T04:50:45.303Z,16.41
2022-08-28T04:53:13.925Z,16.37
2022-08-28T04:55:52.328Z,16.38
2022-08-28T04:58:24.543Z,16.37
2022-08-28T05:00:54.125Z,16.37
2022-08-28T05:03:22.495Z,16.36
2022-08-28T05:05:52.478Z,16.35
2022-08-28T05:08:22.989Z,16.30
2022-08-28T05:10:51.076Z,16.19
2022-08-28T05:13:19.220Z,16.18
2022-08-28T05:15:51.219Z,16.29
2022-08-28T05:18:22.455Z,16.41
2022-08-28T05:20:50.341Z,16.41
2022-08-28T05:23:18.244Z,16.42
2022-08-28T05:25:48.614Z,16.40
2022-08-28T05:28:17.955Z,16.38
2022-08-28T05:30:46.511Z,16.50
2022-08-28T05:33:17.001Z,16.50
2022-08-28T05:35:47.635Z,16.30
2022-08-28T05:38:17.253Z,16.36
2022-08-28T05:40:46.608Z,16.58
2022-08-28T05:43:16.045Z,16.50
2022-08-28T05:45:44.571Z,16.41
2022-08-28T05:48:16.276Z,16.48
2022-08-28T05:50:47.314Z,16.43
2022-08-28T05:53:17.666Z,16.40
2022-08-28T05:55:51.657Z,16.45
2022-08-28T05:58:34.695Z,16.48
2022-08-28T06:01:11.604Z,16.55
2022-08-28T06:03:41.171Z,16.82
2022-08-28T06:06:11.802Z,16.70
2022-08-28T06:08:58.324Z,16.86
2022-08-28T06:11:30.474Z,16.80
2022-08-28T06:14:02.595Z,16.64
2022-08-28T06:16:32.553Z,16.65
2022-08-28T06:19:01.567Z,16.58
2022-08-28T06:21:31.565Z,16.64
2022-08-28T06:23:59.910Z,16.79
2022-08-28T06:26:28.019Z,16.78
2022-08-28T06:29:00.732Z,16.74
2022-08-28T06:31:33.269Z,16.75
2022-08-28T06:34:02.549Z,16.85
2022-08-28T06:36:34.544Z,16.97
2022-08-28T06:39:05.320Z,16.95
2022-08-28T06:41:35.592Z,17.08
2022-08-28T06:44:04.416Z,17.07
2022-08-28T06:46:34.584Z,17.08
2022-08-28T06:49:06.282Z,17.22
2022-08-28T06:51:36.696Z,17.29
2022-08-28T06:54:05.197Z,17.19
2022-08-28T06:56:34.291Z,17.18
2022-08-28T06:59:11.340Z,17.30
2022-08-28T07:01:39.601Z,17.15
2022-08-28T07:04:10.548Z,17.20
2022-08-28T07:06:43.231Z,17.42
2022-08-28T07:09:12.240Z,17.44
2022-08-28T07:11:41.095Z,17.29
2022-08-28T07:14:09.882Z,17.53
2022-08-28T07:16:39.980Z,17.52
2022-08-28T07:19:10.626Z,17.77
2022-08-28T07:21:42.747Z,17.67
2022-08-28T07:24:12.960Z,17.86
2022-08-28T07:26:42.260Z,17.70
2022-08-28T07:29:11.686Z,17.70
2022-08-28T07:31:41.769Z,17.81
2022-08-28T07:34:10.836Z,17.68
2022-08-28T07:36:41.394Z,17.94
2022-08-28T07:39:10.608Z,17.97
2022-08-28T07:41:42.369Z,18.01
2022-08-28T07:44:30.281Z,18.12
2022-08-28T07:47:00.978Z,18.06
2022-08-28T07:49:33.849Z,18.14
2022-08-28T07:52:04.836Z,17.97
2022-08-28T07:54:33.126Z,18.10
2022-08-28T07:57:02.735Z,18.15
2022-08-28T07:59:36.867Z,18.35
2022-08-28T08:02:05.910Z,18.53
2022-08-28T08:04:35.158Z,18.41
2022-08-28T08:07:07.819Z,18.38
2022-08-28T08:09:39.040Z,18.26
2022-08-28T08:12:23.607Z,18.31
2022-08-28T08:14:53.127Z,18.14
2022-08-28T08:17:21.378Z,18.31
2022-08-28T08:19:49.500Z,18.23
2022-08-28T08:22:19.172Z,18.06
2022-08-28T08:24:47.477Z,18.23
2022-08-28T08:27:16.590Z,18.19
2022-08-28T08:29:44.727Z,18.48
2022-08-28T08:32:13.672Z,18.51
2022-08-28T08:34:43.279Z,18.45
2022-08-28T08:37:13.658Z,18.40
2022-08-28T08:39:44.246Z,18.53
2022-08-28T08:42:24.115Z,18.36
2022-08-28T08:44:54.084Z,18.47
2022-08-28T08:47:27.401Z,18.43
2022-08-28T08:49:58.536Z,18.72
2022-08-28T08:52:38.990Z,18.46
2022-08-28T08:55:23.127Z,18.44
2022-08-28T08:57:57.204Z,18.69
2022-08-28T09:00:26.207Z,18.64
2022-08-28T09:03:01.875Z,18.74
2022-08-28T09:05:41.682Z,18.72
2022-08-28T09:08:17.358Z,18.91
2022-08-28T09:10:54.662Z,18.87
2022-08-28T09:13:36.440Z,19.13
2022-08-28T09:16:16.509Z,18.88
2022-08-28T09:18:45.374Z,18.80
2022-08-28T09:21:29.031Z,18.72
2022-08-28T09:24:05.765Z,18.72
2022-08-28T09:26:36.892Z,18.49
2022-08-28T09:29:13.009Z,18.67
2022-08-28T09:31:41.938Z,18.61
2022-08-28T09:34:30.144Z,18.62
2022-08-28T09:36:59.891Z,18.84
2022-08-28T09:39:30.303Z,19.17
2022-08-28T09:42:34.800Z,19.27
2022-08-28T09:45:09.008Z,19.58
2022-08-28T09:47:46.364Z,19.15
2022-08-28T09:50:41.732Z,19.28
2022-08-28T09:53:20.896Z,19.36
2022-08-28T09:56:01.051Z,19.34
2022-08-28T09:58:35.525Z,19.52
2022-08-28T10:01:11.274Z,19.61
2022-08-28T10:03:49.205Z,19.47
2022-08-28T10:06:26.412Z,19.69
2022-08-28T10:09:07.271Z,19.58
2022-08-28T10:11:50.718Z,19.42
2022-08-28T10:14:37.275Z,19.68
2022-08-28T10:17:21.652Z,19.60
2022-08-28T10:19:59.715Z,19.73
2022-08-28T10:22:39.341Z,19.93
2022-08-28T10:25:24.057Z,20.14
2022-08-28T10:28:05.310Z,20.24
2022-08-28T10:30:39.655Z,20.25
2022-08-28T10:33:24.310Z,20.13
2022-08-28T10:35:57.291Z,20.23
2022-08-28T10:38:37.881Z,20.25
2022-08-28T10:41:11.649Z,20.36
2022-08-28T10:43:45.204Z,20.36
2022-08-28T10:46:27.070Z,20.46
2022-08-28T10:48:59.498Z,20.31
2022-08-28T10:51:36.900Z,20.35
2022-08-28T10:54:21.416Z,20.55
2022-08-28T10:56:57.030Z,20.72
2022-08-28T10:59:27.545Z,20.64
2022-08-28T11:01:57.337Z,20.73
2022-08-28T11:04:29.310Z,20.75
2022-08-28T11:07:01.339Z,20.84
2022-08-28T11:09:36.387Z,20.75
2022-08-28T11:12:09.739Z,20.97
2022-08-28T11:14:48.024Z,20.96
2022-08-28T11:17:40.411Z,21.16
2022-08-28T11:20:18.207Z,21.34
2022-08-28T11:22:51.049Z,21.05
2022-08-28T11:25:26.264Z,20.97
2022-08-28T11:28:15.457Z,21.33
2022-08-28T11:30:45.798Z,21.09
2022-08-28T11:33:38.710Z,21.00
2022-08-28T11:36:11.948Z,21.31
2022-08-28T11:39:20.167Z,21.68
2022-08-28T11:42:32.188Z,21.45
2022-08-28T11:45:01.189Z,21.18
2022-08-28T11:47:46.929Z,21.15
2022-08-28T11:50:22.802Z,21.39
2022-08-28T11:53:21.801Z,21.36
2022-08-28T11:56:30.502Z,21.71
2022-08-28T11:59:12.487Z,21.88
2022-08-28T12:01:40.810Z,21.87
2022-08-28T12:04:13.299Z,21.84
2022-08-28T12:06:55.840Z,22.12
2022-08-28T12:09:41.827Z,22.16
2022-08-28T12:12:15.027Z,22.26
2022-08-28T12:15:24.750Z,22.51
2022-08-28T12:17:55.758Z,22.49
2022-08-28T12:21:06.171Z,22.61
2022-08-28T12:23:44.870Z,22.63
2022-08-28T12:26:23.168Z,22.95
2022-08-28T12:28:53.919Z,22.94
2022-08-28T12:32:04.943Z,22.80
2022-08-28T12:34:44.441Z,22.92
2022-08-28T12:37:28.994Z,22.61
2022-08-28T12:40:06.297Z,22.70
2022-08-28T12:42:38.946Z,22.62
2022-08-28T12:45:09.716Z,22.76
2022-08-28T12:47:38.971Z,22.93
2022-08-28T12:50:26.532Z,23.23
2022-08-28T12:52:56.786Z,23.10
2022-08-28T12:55:26.617Z,23.24
2022-08-28T12:57:55.276Z,23.37
2022-08-28T13:00:26.093Z,23.09
2022-08-28T13:02:56.710Z,22.96
2022-08-28T13:05:31.814Z,23.48
2022-08-28T13:08:02.591Z,23.17
2022-08-28T13:10:35.204Z,23.42
2022-08-28T13:13:07.370Z,23.52
2022-08-28T13:15:51.543Z,23.69
2022-08-28T13:18:50.365Z,23.44
2022-08-28T13:21:41.602Z,23.63
2022-08-28T13:24:42.273Z,23.36
2022-08-28T13:27:20.594Z,23.30
2022-08-28T13:30:23.687Z,23.46
2022-08-28T13:32:58.073Z,23.43
2022-08-28T13:35:46.827Z,23.91
2022-08-28T13:38:16.807Z,23.70
2022-08-28T13:40:58.472Z,23.76
2022-08-28T13:43:31.392Z,23.74
2022-08-28T13:45:59.461Z,23.57
2022-08-28T13:48:28.823Z,23.95
2022-08-28T13:51:03.117Z,23.67
2022-08-28T13:53:33.421Z,23.54
2022-08-28T13:56:01.481Z,23.47
2022-08-28T13:58:31.916Z,23.31
2022-08-28T14:01:00.290Z,23.43
2022-08-28T14:03:37.485Z,23.60
2022-08-28T14:06:09.171Z,23.40
2022-08-28T14:08:37.057Z,23.20
2022-08-28T14:11:07.103Z,23.52
2022-08-28T14:13:36.335Z,23.59
2022-08-28T14:16:06.259Z,23.48
2022-08-28T14:18:34.858Z,23.40
2022-08-28T14:21:05.822Z,23.49
2022-08-28T14:23:34.388Z,23.46
2022-08-28T14:26:05.148Z,23.48
2022-08-28T14:28:33.496Z,23.26
2022-08-28T14:31:09.034Z,23.30
2022-08-28T14:33:40.320Z,23.79
2022-08-28T14:36:16.297Z,23.53
2022-08-28T14:38:44.250Z,23.21
2022-08-28T14:41:12.189Z,23.68
2022-08-28T14:43:40.078Z,23.44
2022-08-28T14:46:11.678Z,23.29
2022-08-28T14:48:39.931Z,23.35
2022-08-28T14:51:07.884Z,23.24
2022-08-28T14:53:35.959Z,23.30
2022-08-28T14:56:07.577Z,23.53
2022-08-28T14:58:36.289Z,23.35
2022-08-28T15:01:06.091Z,23.28
2022-08-28T15:03:35.895Z,23.57
2022-08-28T15:06:06.237Z,23.41
2022-08-28T15:08:35.241Z,23.46
2022-08-28T15:11:07.153Z,23.47
2022-08-28T15:13:35.437Z,23.24
2022-08-28T15:16:05.565Z,23.10
2022-08-28T15:18:46.036Z,23.17
2022-08-28T15:21:18.112Z,23.13
2022-08-28T15:23:46.216Z,23.29
2022-08-28T15:26:15.499Z,23.13
2022-08-28T15:28:43.715Z,23.14
2022-08-28T15:31:11.666Z,23.31
2022-08-28T15:33:44.623Z,23.13
2022-08-28T15:36:14.661Z,23.41
2022-08-28T15:38:59.879Z,23.17
2022-08-28T15:41:29.286Z,23.29
2022-08-28T15:44:00.037Z,23.25
2022-08-28T15:46:29.708Z,23.57
2022-08-28T15:48:58.658Z,23.42
2022-08-28T15:51:28.959Z,23.15
2022-08-28T15:53:57.076Z,23.39
2022-08-28T15:56:25.430Z,23.20
2022-08-28T15:58:53.962Z,23.11
2022-08-28T16:01:23.358Z,23.38
2022-08-28T16:03:51.362Z,23.31
2022-08-28T16:06:21.678Z,23.16
2022-08-28T16:08:51.212Z,23.02
2022-08-28T16:11:22.936Z,23.11
2022-08-28T16:13:51.867Z,23.21
2022-08-28T16:16:19.994Z,23.07
2022-08-28T16:18:48.496Z,23.11
2022-08-28T16:21:17.077Z,23.05
2022-08-28T16:23:45.190Z,22.91
2022-08-28T16:26:15.952Z,22.80
2022-08-28T16:28:44.690Z,22.94
2022-08-28T16:31:20.573Z,22.79
2022-08-28T16:33:49.799Z,22.78
2022-08-28T16:36:18.608Z,22.71
2022-08-28T16:38:59.624Z,22.71
2022-08-28T16:41:33.501Z,22.87
2022-08-28T16:44:01.488Z,23.23
2022-08-28T16:46:29.898Z,23.08
2022-08-28T16:48:59.567Z,22.85
2022-08-28T16:51:28.056Z,22.88
2022-08-28T16:53:56.427Z,22.95
2022-08-28T16:56:25.307Z,22.96
2022-08-28T16:58:54.782Z,22.76
2022-08-28T17:01:24.166Z,22.92
2022-08-28T17:03:54.499Z,22.91
2022-08-28T17:06:25.923Z,22.67
2022-08-28T17:08:57.145Z,22.47
2022-08-28T17:11:26.136Z,22.52
2022-08-28T17:13:56.386Z,22.96
2022-08-28T17:16:25.954Z,22.69
2022-08-28T17:18:54.065Z,22.49
2022-08-28T17:21:39.993Z,22.66
2022-08-28T17:24:08.501Z,22.65
2022-08-28T17:26:36.520Z,22.72
2022-08-28T17:29:05.999Z,22.30
2022-08-28T17:31:34.266Z,22.32
2022-08-28T17:34:02.226Z,22.56
2022-08-28T17:36:33.483Z,22.30
2022-08-28T17:39:03.260Z,22.35
2022-08-28T17:41:31.612Z,22.24
2022-08-28T17:44:01.407Z,21.92
2022-08-28T17:46:35.292Z,21.97
2022-08-28T17:49:06.599Z,22.14
2022-08-28T17:51:43.820Z,21.94
2022-08-28T17:54:13.037Z,22.00
2022-08-28T17:56:41.238Z,21.92
2022-08-28T17:59:09.495Z,21.91
2022-08-28T18:01:39.123Z,22.12
2022-08-28T18:04:07.590Z,21.94
2022-08-28T18:06:36.122Z,21.88
2022-08-28T18:09:04.417Z,21.62
2022-08-28T18:11:32.255Z,21.48
2022-08-28T18:14:00.996Z,21.48
2022-08-28T18:16:31.611Z,21.51
2022-08-28T18:19:01.539Z,21.42
2022-08-28T18:21:30.156Z,21.38
2022-08-28T18:23:58.317Z,21.38
2022-08-28T18:26:26.336Z,21.27
2022-08-28T18:28:54.529Z,21.22
2022-08-28T18:31:23.207Z,21.32
2022-08-28T18:33:51.685Z,21.22
2022-08-28T18:36:23.642Z,21.23
2022-08-28T18:38:51.882Z,21.15
2022-08-28T18:41:20.467Z,21.01
2022-08-28T18:43:49.088Z,21.01
2022-08-28T18:46:17.078Z,21.07
2022-08-28T18:48:45.139Z,20.87
2022-08-28T18:51:13.892Z,20.82
2022-08-28T18:53:43.860Z,20.75
2022-08-28T18:56:12.593Z,20.70
2022-08-28T18:58:41.850Z,20.49
2022-08-28T19:01:10.762Z,20.44
2022-08-28T19:03:39.572Z,20.63
2022-08-28T19:06:08.120Z,20.58
2022-08-28T19:08:36.919Z,20.42
2022-08-28T19:11:08.791Z,20.53
2022-08-28T19:13:38.272Z,20.40
2022-08-28T19:16:07.351Z,20.43
2022-08-28T19:18:35.632Z,20.38
2022-08-28T19:21:05.602Z,20.25
2022-08-28T19:23:34.092Z,20.27
2022-08-28T19:26:02.330Z,20.30
2022-08-28T19:28:31.724Z,20.13
2022-08-28T19:31:00.194Z,20.02
2022-08-28T19:33:28.518Z,20.16
2022-08-28T19:35:56.949Z,19.93
2022-08-28T19:38:25.391Z,19.83
2022-08-28T19:40:57.290Z,19.89
2022-08-28T19:43:25.461Z,19.81
2022-08-28T19:46:19.989Z,19.64
2022-08-28T19:48:48.806Z,19.62
2022-08-28T19:51:22.938Z,19.62
2022-08-28T19:53:56.874Z,19.56
2022-08-28T19:56:27.317Z,19.52
2022-08-28T19:58:58.280Z,19.46
2022-08-28T20:01:29.830Z,19.50
2022-08-28T20:03:58.528Z,19.48
2022-08-28T20:06:26.619Z,19.34
2022-08-28T20:08:54.853Z,19.45
2022-08-28T20:11:30.472Z,19.45
2022-08-28T20:14:03.930Z,19.32
2022-08-28T20:16:35.886Z,19.30
2022-08-28T20:19:05.268Z,19.39
2022-08-28T20:21:37.098Z,19.51
2022-08-28T20:24:07.270Z,19.32
2022-08-28T20:26:35.520Z,19.20
2022-08-28T20:29:03.831Z,19.12
2022-08-28T20:31:33.160Z,19.21
2022-08-28T20:34:01.062Z,18.99
2022-08-28T20:36:29.276Z,18.96
2022-08-28T20:38:57.807Z,18.95
2022-08-28T20:41:26.007Z,19.04
2022-08-28T20:43:54.024Z,18.93
2022-08-28T20:46:22.203Z,18.99
2022-08-28T20:48:51.482Z,18.91
2022-08-28T20:51:40.407Z,18.75
2022-08-28T20:54:08.243Z,18.71
2022-08-28T20:56:36.243Z,18.59
2022-08-28T20:59:05.192Z,18.56
2022-08-28T21:01:33.835Z,18.48
2022-08-28T21:04:03.331Z,18.53
2022-08-28T21:06:32.074Z,18.60
2022-08-28T21:09:00.132Z,18.55
2022-08-28T21:11:29.412Z,18.44
2022-08-28T21:13:57.377Z,18.41
2022-08-28T21:16:25.511Z,18.35
2022-08-28T21:19:14.524Z,18.40
2022-08-28T21:21:43.702Z,18.35
2022-08-28T21:24:14.252Z,18.21
2022-08-28T21:26:44.045Z,18.30
2022-08-28T21:29:14.015Z,18.29
2022-08-28T21:31:42.593Z,18.23
2022-08-28T21:34:10.965Z,18.23
2022-08-28T21:36:49.530Z,18.22
2022-08-28T21:39:20.576Z,18.14
2022-08-28T21:41:49.544Z,18.09
2022-08-28T21:44:17.754Z,18.04
2022-08-28T21:46:45.839Z,17.76
2022-08-28T21:49:13.796Z,17.84
2022-08-28T21:51:41.895Z,17.80
2022-08-28T21:54:11.268Z,17.79
2022-08-28T21:56:39.168Z,17.78
2022-08-28T21:59:07.139Z,17.62
2022-08-28T22:01:35.484Z,17.54
2022-08-28T22:04:04.131Z,17.48
2022-08-28T22:06:32.504Z,17.46
2022-08-28T22:09:00.712Z,17.31
2022-08-28T22:11:30.995Z,17.25
2022-08-28T22:13:58.989Z,17.07
2022-08-28T22:16:28.309Z,17.12
2022-08-28T22:18:56.440Z,16.98
2022-08-28T22:21:44.248Z,16.95
2022-08-28T22:24:13.560Z,16.89
2022-08-28T22:26:44.147Z,16.77
2022-08-28T22:29:13.021Z,16.73
2022-08-28T22:31:43.955Z,16.72
2022-08-28T22:34:14.659Z,16.69
2022-08-28T22:36:42.700Z,16.74
2022-08-28T22:39:10.592Z,16.69
2022-08-28T22:41:38.658Z,16.69
2022-08-28T22:44:08.069Z,16.66
2022-08-28T22:46:36.013Z,16.59
2022-08-28T22:49:04.094Z,16.55
2022-08-28T22:51:34.354Z,16.58
2022-08-28T22:54:02.264Z,16.55
2022-08-28T22:56:30.186Z,16.51
2022-08-28T22:58:58.020Z,16.41
2022-08-28T23:01:27.926Z,16.41
2022-08-28T23:03:55.943Z,16.34
2022-08-28T23:06:23.927Z,16.28
2022-08-28T23:08:51.887Z,16.24
2022-08-28T23:11:19.815Z,16.25
2022-08-28T23:13:48.434Z,16.15
2022-08-28T23:16:23.636Z,16.17
2022-08-28T23:19:08.901Z,16.17
2022-08-28T23:21:40.210Z,16.12
2022-08-28T23:24:12.800Z,16.12
2022-08-28T23:26:40.757Z,16.18
2022-08-28T23:29:08.688Z,16.15
2022-08-28T23:31:37.108Z,16.08
2022-08-28T23:34:07.971Z,16.05
2022-08-28T23:36:37.091Z,16.05
2022-08-28T23:39:07.496Z,15.97
2022-08-28T23:41:35.438Z,15.94
2022-08-28T23:44:08.479Z,15.79
2022-08-28T23:46:41.687Z,15.80
2022-08-28T23:49:12.851Z,15.80
2022-08-28T23:51:40.960Z,15.83
2022-08-28T23:54:10.716Z,15.86
2022-08-28T23:56:39.218Z,15.86
2022-08-28T23:59:07.387Z,15.78
